KLGA

Laguardia Airport

New York, New York, USA
KLGA 172005Z 1720/1824 29012G17KT P6SM BKN045 FM172200 29010KT P6SM BKN045 FM180300 30009KT P6SM SCT045 FM180500 31007KT P6SM FEW045 SCT120 FM180800 34005KT P6SM BKN120 FM181200 02005KT P6SM BKN100 FM181500 06006KT P6SM SCT060 BKN100 FM181900 VRB05KT P6SM SCT050 BKN100 FM182100 16006KT P6SM BKN040
Issued Valid From Valid To
Nov-17 @ 20:05 UTC
(2 hours ago)
Nov-17 @ 20:00 UTC
(2 hours ago)
Nov-19 @ 00:00 UTC
(-1 days ago)
Nov-17 @ 20:00 to Nov-17 @ 22:00
KLGA 172005Z 1720/1824 29012G17KT P6SM BKN045
Wind Visibility Clouds
290° at 12 knots
 Gusting to 17 knots
Greater than 6 miles
  • Broken at 4,500' AGL
From Nov-17 @ 22:00 to Nov-18 @ 03:00
FM172200 29010KT P6SM BKN045
Wind Visibility Clouds
290° at 10 knots Greater than 6 miles
  • Broken at 4,500' AGL
From Nov-18 @ 03:00 to Nov-18 @ 05:00
FM180300 30009KT P6SM SCT045
Wind Visibility Clouds
300° at 9 knots Greater than 6 miles
  • Scattered at 4,500' AGL
From Nov-18 @ 05:00 to Nov-18 @ 08:00
FM180500 31007KT P6SM FEW045 SCT120
Wind Visibility Clouds
310° at 7 knots Greater than 6 miles
  • Few at 4,500' AGL
  • Scattered at 12,000' AGL
From Nov-18 @ 08:00 to Nov-18 @ 12:00
FM180800 34005KT P6SM BKN120
Wind Visibility Clouds
340° at 5 knots Greater than 6 miles
  • Broken at 12,000' AGL
From Nov-18 @ 12:00 to Nov-18 @ 15:00
FM181200 02005KT P6SM BKN100
Wind Visibility Clouds
20° at 5 knots Greater than 6 miles
  • Broken at 10,000' AGL
From Nov-18 @ 15:00 to Nov-18 @ 19:00
FM181500 06006KT P6SM SCT060 BKN100
Wind Visibility Clouds
60° at 6 knots Greater than 6 miles
  • Scattered at 6,000' AGL
  • Broken at 10,000' AGL
From Nov-18 @ 19:00 to Nov-18 @ 21:00
FM181900 VRB05KT P6SM SCT050 BKN100
Wind Visibility Clouds
Variable at 5 knots Greater than 6 miles
  • Scattered at 5,000' AGL
  • Broken at 10,000' AGL
From Nov-18 @ 21:00 to Nov-19 @ 00:00
FM182100 16006KT P6SM BKN040
Wind Visibility Clouds
160° at 6 knots Greater than 6 miles
  • Broken at 4,000' AGL
KLGA 172005Z 1720/1824 29012G17KT P6SM BKN045 FM172200 29010KT P6SM BKN045 FM180300 30009KT P6SM SCT045 FM180500 31007KT P6SM FEW045 SCT120 FM180800 34005KT P6SM BKN120 FM181200 02005KT P6SM BKN100 FM181500 06006KT P6SM SCT060 BKN100 FM181900 VRB05KT P6SM SCT050 BKN100 FM182100 16006KT P6SM BKN040
Issued Nov-17 @ 20:05 UTC
(2 hours ago)
Valid From Nov-17 @ 20:00 UTC
(2 hours ago)
Valid To Nov-19 @ 00:00 UTC
(-1 days ago)
Nov-17 @ 20:00 - Nov-17 @ 22:00
Wind Visibility
290° at 12 knots
 Gusting to 17 knots
Greater than 6 miles
Clouds
  • Broken at 4,500' AGL
From Nov-17 @ 22:00 - Nov-18 @ 03:00
Wind Visibility
290° at 10 knots Greater than 6 miles
Clouds
  • Broken at 4,500' AGL
From Nov-18 @ 03:00 - Nov-18 @ 05:00
Wind Visibility
300° at 9 knots Greater than 6 miles
Clouds
  • Scattered at 4,500' AGL
From Nov-18 @ 05:00 - Nov-18 @ 08:00
Wind Visibility
310° at 7 knots Greater than 6 miles
Clouds
  • Few at 4,500' AGL
  • Scattered at 12,000' AGL
From Nov-18 @ 08:00 - Nov-18 @ 12:00
Wind Visibility
340° at 5 knots Greater than 6 miles
Clouds
  • Broken at 12,000' AGL
From Nov-18 @ 12:00 - Nov-18 @ 15:00
Wind Visibility
20° at 5 knots Greater than 6 miles
Clouds
  • Broken at 10,000' AGL
From Nov-18 @ 15:00 - Nov-18 @ 19:00
Wind Visibility
60° at 6 knots Greater than 6 miles
Clouds
  • Scattered at 6,000' AGL
  • Broken at 10,000' AGL
From Nov-18 @ 19:00 - Nov-18 @ 21:00
Wind Visibility
Variable at 5 knots Greater than 6 miles
Clouds
  • Scattered at 5,000' AGL
  • Broken at 10,000' AGL
From Nov-18 @ 21:00 - Nov-19 @ 00:00
Wind Visibility
160° at 6 knots Greater than 6 miles
Clouds
  • Broken at 4,000' AGL